createdAt,value
2018-06-12T00:01:41.815Z,0.00
2018-06-12T00:02:41.718Z,0.00
2018-06-12T00:04:36.016Z,0.00
2018-06-12T00:05:35.933Z,0.00
2018-06-12T00:07:30.256Z,0.00
2018-06-12T00:08:30.151Z,0.00
2018-06-12T00:09:30.091Z,0.00
2018-06-12T00:10:30.030Z,0.00
2018-06-12T00:11:29.976Z,0.00
2018-06-12T00:12:29.915Z,0.00
2018-06-12T00:13:29.857Z,0.00
2018-06-12T00:14:29.796Z,0.00
2018-06-12T00:15:29.739Z,0.00
2018-06-12T00:16:29.679Z,0.00
2018-06-12T00:17:29.618Z,0.00
2018-06-12T00:18:29.562Z,0.00
2018-06-12T00:19:29.500Z,0.00
2018-06-12T00:20:29.446Z,0.00
2018-06-12T00:21:29.383Z,0.00
2018-06-12T00:22:29.321Z,0.00
2018-06-12T00:23:29.265Z,0.00
2018-06-12T00:24:29.209Z,0.00
2018-06-12T00:25:29.144Z,0.00
2018-06-12T00:26:29.087Z,0.00
2018-06-12T00:27:29.025Z,0.00
2018-06-12T00:28:28.974Z,0.00
2018-06-12T00:29:28.911Z,0.00
2018-06-12T00:30:28.849Z,0.00
2018-06-12T00:31:28.791Z,0.00
2018-06-12T00:32:28.734Z,0.00
2018-06-12T00:33:28.674Z,0.00
2018-06-12T00:34:28.610Z,0.00
2018-06-12T00:35:28.553Z,0.00
2018-06-12T00:36:28.495Z,0.00
2018-06-12T00:37:28.433Z,0.00
2018-06-12T00:38:28.379Z,0.00
2018-06-12T00:39:28.322Z,0.00
2018-06-12T00:40:28.259Z,0.00
2018-06-12T00:41:28.200Z,0.00
2018-06-12T00:42:28.134Z,0.00
2018-06-12T00:43:28.079Z,0.00
2018-06-12T00:44:28.018Z,0.00
2018-06-12T00:45:27.957Z,0.00
2018-06-12T00:46:27.905Z,0.00
2018-06-12T00:47:27.838Z,0.00
2018-06-12T00:48:27.784Z,0.00
2018-06-12T00:49:27.720Z,0.00
2018-06-12T00:50:27.660Z,0.00
2018-06-12T00:51:27.601Z,0.00
2018-06-12T00:52:27.541Z,0.00
2018-06-12T00:53:27.485Z,0.00
2018-06-12T00:54:27.428Z,0.00
2018-06-12T00:55:27.365Z,0.00
2018-06-12T00:56:27.304Z,0.00
2018-06-12T00:57:27.245Z,0.00
2018-06-12T00:58:27.189Z,0.00
2018-06-12T00:59:27.127Z,0.00
2018-06-12T01:00:27.071Z,0.00
2018-06-12T01:01:27.007Z,0.00
2018-06-12T01:02:26.944Z,0.00
2018-06-12T01:03:26.886Z,0.00
2018-06-12T01:04:26.827Z,0.00
2018-06-12T01:05:26.767Z,0.00
2018-06-12T01:06:26.706Z,0.00
2018-06-12T01:07:26.647Z,0.00
2018-06-12T01:08:26.589Z,0.00
2018-06-12T01:09:26.529Z,0.00
2018-06-12T01:10:26.470Z,0.00
2018-06-12T01:11:26.409Z,0.00
2018-06-12T01:12:26.350Z,0.00
2018-06-12T01:13:26.288Z,0.00
2018-06-12T01:14:26.232Z,0.00
2018-06-12T01:15:26.170Z,0.00
2018-06-12T01:16:26.112Z,0.00
2018-06-12T01:17:26.053Z,0.00
2018-06-12T01:18:25.990Z,0.00
2018-06-12T01:19:25.931Z,0.00
2018-06-12T01:20:25.875Z,0.00
2018-06-12T01:21:25.810Z,0.00
2018-06-12T01:22:25.751Z,0.00
2018-06-12T01:23:25.693Z,0.00
2018-06-12T01:24:25.632Z,0.00
2018-06-12T01:25:25.570Z,0.00
2018-06-12T01:26:25.514Z,0.00
2018-06-12T01:27:25.456Z,0.00
2018-06-12T01:28:25.393Z,0.00
2018-06-12T01:29:25.339Z,0.00
2018-06-12T01:30:25.271Z,0.00
2018-06-12T01:31:25.212Z,0.00
2018-06-12T01:32:25.153Z,0.00
2018-06-12T01:33:25.092Z,0.00
2018-06-12T01:34:25.034Z,0.00
2018-06-12T01:35:24.979Z,0.00
2018-06-12T01:36:24.912Z,0.00
2018-06-12T01:37:24.852Z,0.00
2018-06-12T01:38:24.793Z,0.00
2018-06-12T01:39:24.735Z,0.00
2018-06-12T01:40:24.674Z,0.00
2018-06-12T01:41:24.616Z,0.00
2018-06-12T01:42:24.553Z,0.00
2018-06-12T01:43:24.494Z,0.00
2018-06-12T01:44:24.433Z,0.00
2018-06-12T01:45:24.373Z,0.00
2018-06-12T01:46:24.314Z,0.00
2018-06-12T01:47:24.256Z,0.00
2018-06-12T01:48:24.196Z,0.00
2018-06-12T01:49:24.136Z,0.00
2018-06-12T01:50:24.078Z,0.00
2018-06-12T01:51:24.012Z,0.00
2018-06-12T01:52:23.957Z,0.00
2018-06-12T01:53:23.896Z,0.00
2018-06-12T01:54:23.833Z,0.00
2018-06-12T01:55:23.774Z,0.00
2018-06-12T01:56:23.730Z,0.00
2018-06-12T01:57:23.654Z,0.00
2018-06-12T01:58:23.596Z,0.00
2018-06-12T01:59:23.536Z,0.00
2018-06-12T02:00:23.481Z,4.00
2018-06-12T02:01:23.414Z,4.00
2018-06-12T02:02:23.362Z,4.00
2018-06-12T02:03:23.294Z,0.00
2018-06-12T02:04:23.234Z,0.00
2018-06-12T02:05:23.174Z,4.00
2018-06-12T02:06:23.117Z,4.00
2018-06-12T02:07:23.056Z,4.00
2018-06-12T02:08:22.996Z,4.00
2018-06-12T02:09:22.938Z,4.00
2018-06-12T02:13:29.715Z,4.00
2018-06-12T02:14:29.506Z,8.00
2018-06-12T02:16:22.917Z,12.00
2018-06-12T02:17:22.726Z,12.00
2018-06-12T02:19:16.035Z,16.00
2018-06-12T02:20:15.944Z,12.00
2018-06-12T02:22:10.249Z,16.00
2018-06-12T02:23:10.148Z,20.00
2018-06-12T02:25:04.445Z,24.00
2018-06-12T02:26:04.353Z,28.00
2018-06-12T02:27:57.665Z,36.00
2018-06-12T02:28:57.573Z,36.00
2018-06-12T02:30:51.881Z,48.00
2018-06-12T02:31:51.778Z,52.00
2018-06-12T02:33:46.072Z,64.00
2018-06-12T02:34:45.984Z,72.00
2018-06-12T02:36:40.474Z,88.00
2018-06-12T02:37:40.384Z,92.00
2018-06-12T02:39:33.703Z,112.00
2018-06-12T02:40:33.605Z,120.00
2018-06-12T02:42:28.127Z,140.00
2018-06-12T02:43:28.028Z,148.00
2018-06-12T02:45:22.326Z,168.00
2018-06-12T02:46:22.233Z,176.00
2018-06-12T02:48:16.645Z,196.00
2018-06-12T02:49:16.442Z,208.00
2018-06-12T02:51:10.737Z,228.00
2018-06-12T02:52:10.649Z,240.00
2018-06-12T02:54:04.942Z,260.00
2018-06-12T02:55:04.856Z,272.00
2018-06-12T02:56:59.150Z,296.00
2018-06-12T02:57:59.062Z,316.00
2018-06-12T02:59:52.377Z,344.00
2018-06-12T03:00:52.280Z,360.00
2018-06-12T03:02:46.568Z,400.00
2018-06-12T03:03:46.480Z,416.00
2018-06-12T03:05:40.786Z,448.00
2018-06-12T03:06:40.691Z,464.00
2018-06-12T03:08:34.999Z,508.00
2018-06-12T03:09:34.903Z,532.00
2018-06-12T03:11:29.196Z,604.00
2018-06-12T03:12:29.105Z,644.00
2018-06-12T03:14:23.405Z,736.00
2018-06-12T03:15:23.312Z,784.00
2018-06-12T03:17:17.621Z,860.00
2018-06-12T03:18:17.517Z,916.00
2018-06-12T03:20:10.827Z,1068.00
2018-06-12T03:21:10.738Z,1152.00
2018-06-12T03:23:05.200Z,1272.00
2018-06-12T03:24:05.113Z,1324.00
2018-06-12T03:25:59.422Z,1432.00
2018-06-12T03:26:59.322Z,1476.00
2018-06-12T03:28:53.813Z,1548.00
2018-06-12T03:29:53.723Z,1596.00
2018-06-12T03:31:47.132Z,1684.00
2018-06-12T03:32:46.939Z,1724.00
2018-06-12T03:34:41.345Z,1816.00
2018-06-12T03:35:41.144Z,1856.00
2018-06-12T03:37:35.448Z,1916.00
2018-06-12T03:38:35.351Z,1944.00
2018-06-12T03:40:29.262Z,1956.00
2018-06-12T03:41:28.569Z,1976.00
2018-06-12T03:43:22.868Z,2100.00
2018-06-12T03:44:22.777Z,2176.00
2018-06-12T03:46:17.084Z,2304.00
2018-06-12T03:47:16.981Z,2344.00
2018-06-12T03:49:11.287Z,2480.00
2018-06-12T03:50:11.193Z,2528.00
2018-06-12T03:52:04.493Z,2608.00
2018-06-12T03:53:04.396Z,2664.00
2018-06-12T03:54:58.704Z,2824.00
2018-06-12T03:55:58.606Z,2984.00
2018-06-12T03:57:52.903Z,3416.00
2018-06-12T03:58:52.822Z,3384.00
2018-06-12T04:00:46.227Z,3424.00
2018-06-12T04:01:46.030Z,3448.00
2018-06-12T04:03:39.336Z,3516.00
2018-06-12T04:04:39.247Z,3580.00
2018-06-12T04:06:33.556Z,3888.00
2018-06-12T04:07:33.466Z,3880.00
2018-06-12T04:09:27.770Z,4000.00
2018-06-12T04:10:27.669Z,4060.00
2018-06-12T04:12:21.976Z,4140.00
2018-06-12T04:13:21.876Z,4212.00
2018-06-12T04:15:15.785Z,4340.00
2018-06-12T04:16:15.100Z,4260.00
2018-06-12T04:18:09.405Z,4144.00
2018-06-12T04:19:09.305Z,4032.00
2018-06-12T04:20:09.243Z,3856.00
2018-06-12T04:21:09.179Z,3840.00
2018-06-12T04:22:09.119Z,3528.00
2018-06-12T04:23:09.059Z,3452.00
2018-06-12T04:24:09.000Z,3424.00
2018-06-12T04:25:08.940Z,3460.00
2018-06-12T04:26:08.880Z,3532.00
2018-06-12T04:27:08.820Z,3620.00
2018-06-12T04:28:08.763Z,3720.00
2018-06-12T04:29:08.699Z,3832.00
2018-06-12T04:30:08.640Z,3964.00
2018-06-12T04:31:08.576Z,4112.00
2018-06-12T04:32:08.517Z,4228.00
2018-06-12T04:33:08.457Z,4320.00
2018-06-12T04:34:08.395Z,4392.00
2018-06-12T04:35:08.340Z,4532.00
2018-06-12T04:36:08.274Z,4656.00
2018-06-12T04:37:08.220Z,4748.00
2018-06-12T04:38:08.155Z,4824.00
2018-06-12T04:39:08.096Z,4872.00
2018-06-12T04:40:08.036Z,4924.00
2018-06-12T04:41:07.977Z,4976.00
2018-06-12T04:42:07.918Z,5100.00
2018-06-12T04:43:07.852Z,5296.00
2018-06-12T04:44:07.793Z,5672.00
2018-06-12T04:45:07.735Z,6112.00
2018-06-12T04:46:07.673Z,5700.00
2018-06-12T04:47:07.628Z,5712.00
2018-06-12T04:48:07.552Z,5632.00
2018-06-12T04:49:07.492Z,5572.00
2018-06-12T04:50:07.436Z,5612.00
2018-06-12T04:51:07.373Z,5668.00
2018-06-12T04:52:07.313Z,5752.00
2018-06-12T04:53:07.249Z,5804.00
2018-06-12T04:54:07.189Z,5788.00
2018-06-12T04:55:07.132Z,5776.00
2018-06-12T04:56:07.069Z,5736.00
2018-06-12T04:57:07.010Z,5692.00
2018-06-12T04:58:06.953Z,5680.00
2018-06-12T04:59:06.891Z,5696.00
2018-06-12T05:00:06.832Z,5748.00
2018-06-12T05:01:06.780Z,5836.00
2018-06-12T05:02:06.706Z,5880.00
2018-06-12T05:03:06.651Z,5972.00
2018-06-12T05:04:06.591Z,6052.00
2018-06-12T05:05:06.527Z,6112.00
2018-06-12T05:06:06.468Z,6216.00
2018-06-12T05:07:06.409Z,6276.00
2018-06-12T05:08:06.348Z,6376.00
2018-06-12T05:09:06.292Z,6448.00
2018-06-12T05:10:06.229Z,6472.00
2018-06-12T05:11:06.176Z,6504.00
2018-06-12T05:12:06.116Z,6512.00
2018-06-12T05:13:06.047Z,6508.00
2018-06-12T05:14:06.001Z,6536.00
2018-06-12T05:15:05.928Z,6528.00
2018-06-12T05:16:05.869Z,6504.00
2018-06-12T05:17:05.811Z,6468.00
2018-06-12T05:18:05.759Z,6424.00
2018-06-12T05:19:05.693Z,6420.00
2018-06-12T05:20:05.630Z,6396.00
2018-06-12T05:21:05.576Z,6356.00
2018-06-12T05:22:05.533Z,6368.00
2018-06-12T05:23:05.452Z,6384.00
2018-06-12T05:24:05.391Z,6420.00
2018-06-12T05:25:05.406Z,6468.00
2018-06-12T05:26:05.271Z,6536.00
2018-06-12T05:27:05.212Z,6552.00
2018-06-12T05:28:05.147Z,6584.00
2018-06-12T05:29:05.091Z,6640.00
2018-06-12T05:30:05.056Z,6748.00
2018-06-12T05:31:05.005Z,6884.00
2018-06-12T05:32:04.911Z,7016.00
2018-06-12T05:33:04.848Z,7140.00
2018-06-12T05:34:04.783Z,7220.00
2018-06-12T05:35:04.729Z,7280.00
2018-06-12T05:36:04.676Z,7432.00
2018-06-12T05:37:04.611Z,7632.00
2018-06-12T05:38:04.547Z,7816.00
2018-06-12T05:39:04.490Z,7972.00
2018-06-12T05:40:04.428Z,8100.00
2018-06-12T05:41:04.373Z,8140.00
2018-06-12T05:42:04.309Z,8160.00
2018-06-12T05:43:04.249Z,8048.00
2018-06-12T05:44:04.193Z,7916.00
2018-06-12T05:45:04.127Z,7844.00
2018-06-12T05:46:04.069Z,7940.00
2018-06-12T05:47:04.009Z,7988.00
2018-06-12T05:48:03.947Z,7792.00
2018-06-12T05:49:03.889Z,7576.00
2018-06-12T05:50:03.832Z,7504.00
2018-06-12T05:51:03.767Z,7352.00
2018-06-12T05:52:03.709Z,7272.00
2018-06-12T05:53:03.652Z,7224.00
2018-06-12T05:54:03.591Z,7404.00
2018-06-12T05:55:03.530Z,7716.00
2018-06-12T05:56:03.476Z,7700.00
2018-06-12T05:57:03.408Z,7632.00
2018-06-12T05:58:03.345Z,7596.00
2018-06-12T05:59:03.311Z,7584.00
2018-06-12T06:00:03.225Z,7800.00
2018-06-12T06:01:03.172Z,8436.00
2018-06-12T06:02:03.110Z,9372.00
2018-06-12T06:03:03.047Z,9612.00
2018-06-12T06:04:02.997Z,9520.00
2018-06-12T06:05:02.929Z,9932.00
2018-06-12T06:06:02.871Z,10732.00
2018-06-12T06:07:02.815Z,10856.00
2018-06-12T06:08:02.751Z,10560.00
2018-06-12T06:09:02.692Z,11044.00
2018-06-12T06:10:02.632Z,11368.00
2018-06-12T06:11:02.576Z,11192.00
2018-06-12T06:12:02.512Z,11008.00
2018-06-12T06:13:02.452Z,10372.00
2018-06-12T06:14:02.392Z,10136.00
2018-06-12T06:15:02.338Z,9880.00
2018-06-12T06:16:02.277Z,9592.00
2018-06-12T06:17:02.276Z,9688.00
2018-06-12T06:18:02.156Z,9924.00
2018-06-12T06:19:02.148Z,10156.00
2018-06-12T06:20:02.035Z,9464.00
2018-06-12T06:21:01.979Z,9528.00
2018-06-12T06:22:01.927Z,9264.00
2018-06-12T06:23:01.863Z,10028.00
2018-06-12T06:24:01.807Z,8552.00
2018-06-12T06:25:01.751Z,8496.00
2018-06-12T06:26:01.681Z,9048.00
2018-06-12T06:27:01.622Z,10244.00
2018-06-12T06:28:01.564Z,9796.00
2018-06-12T06:29:01.503Z,8620.00
2018-06-12T06:30:01.440Z,8976.00
2018-06-12T06:31:01.384Z,8456.00
2018-06-12T06:32:01.320Z,8592.00
2018-06-12T06:33:01.265Z,10520.00
2018-06-12T06:34:01.207Z,12180.00
2018-06-12T06:35:01.147Z,13168.00
2018-06-12T06:36:01.089Z,14300.00
2018-06-12T06:37:01.028Z,14496.00
2018-06-12T06:38:00.967Z,13568.00
2018-06-12T06:39:00.953Z,12708.00
2018-06-12T06:40:00.852Z,12352.00
2018-06-12T06:41:00.791Z,12004.00
2018-06-12T06:42:00.736Z,12536.00
2018-06-12T06:43:00.726Z,12768.00
2018-06-12T06:44:00.613Z,11308.00
2018-06-12T06:45:00.557Z,11044.00
2018-06-12T06:46:00.499Z,10612.00
2018-06-12T06:47:00.439Z,10860.00
2018-06-12T06:48:00.385Z,11716.00
2018-06-12T06:49:00.319Z,12064.00
2018-06-12T06:50:00.260Z,13128.00
2018-06-12T06:51:00.206Z,14468.00
2018-06-12T06:52:00.146Z,13664.00
2018-06-12T06:53:00.095Z,13964.00
2018-06-12T06:54:00.033Z,13940.00
2018-06-12T06:55:00.025Z,12680.00
2018-06-12T06:55:59.910Z,10852.00
2018-06-12T06:56:59.861Z,9684.00
2018-06-12T06:57:59.800Z,9604.00
2018-06-12T06:58:59.740Z,10160.00
2018-06-12T06:59:59.678Z,11468.00
2018-06-12T07:01:00.528Z,13184.00
2018-06-12T07:01:59.579Z,13824.00
2018-06-12T07:02:59.509Z,13268.00
2018-06-12T07:03:59.538Z,14172.00
2018-06-12T07:04:59.383Z,14308.00
2018-06-12T07:05:59.355Z,13472.00
2018-06-12T07:07:06.014Z,13952.00
2018-06-12T07:07:59.393Z,14136.00
2018-06-12T07:08:59.189Z,14260.00
2018-06-12T07:09:59.092Z,14576.00
2018-06-12T07:10:59.037Z,14488.00
2018-06-12T07:11:58.978Z,14672.00
2018-06-12T07:12:58.915Z,14948.00
2018-06-12T07:13:58.858Z,14400.00
2018-06-12T07:14:58.814Z,15476.00
2018-06-12T07:15:58.741Z,14780.00
2018-06-12T07:16:58.685Z,15040.00
2018-06-12T07:17:58.628Z,15324.00
2018-06-12T07:18:58.572Z,15052.00
2018-06-12T07:19:58.513Z,14276.00
2018-06-12T07:20:58.452Z,12400.00
2018-06-12T07:21:58.415Z,13400.00
2018-06-12T07:22:58.352Z,15236.00
2018-06-12T07:23:58.281Z,15840.00
2018-06-12T07:24:58.224Z,16624.00
2018-06-12T07:25:58.168Z,16596.00
2018-06-12T07:26:58.104Z,16604.00
2018-06-12T07:27:58.047Z,16528.00
2018-06-12T07:28:57.991Z,15892.00
2018-06-12T07:29:57.940Z,15900.00
2018-06-12T07:30:57.876Z,16264.00
2018-06-12T07:31:57.819Z,16296.00
2018-06-12T07:32:57.758Z,15884.00
2018-06-12T07:33:57.707Z,14856.00
2018-06-12T07:34:57.643Z,14784.00
2018-06-12T07:35:57.590Z,14764.00
2018-06-12T07:36:57.533Z,14624.00
2018-06-12T07:37:57.471Z,14220.00
2018-06-12T07:38:57.422Z,14228.00
2018-06-12T07:39:57.364Z,13696.00
2018-06-12T07:40:57.300Z,13652.00
2018-06-12T07:41:57.243Z,13736.00
2018-06-12T07:42:57.188Z,15084.00
2018-06-12T07:43:57.129Z,15820.00
2018-06-12T07:44:57.085Z,16644.00
2018-06-12T07:45:57.012Z,17344.00
2018-06-12T07:46:56.957Z,16276.00
2018-06-12T07:47:56.902Z,15508.00
2018-06-12T07:48:56.845Z,16588.00
2018-06-12T07:49:56.783Z,17824.00
2018-06-12T07:50:56.731Z,18848.00
2018-06-12T07:51:56.718Z,19648.00
2018-06-12T07:52:56.609Z,18624.00
2018-06-12T07:53:56.553Z,17632.00
2018-06-12T07:54:56.496Z,17888.00
2018-06-12T07:55:56.436Z,18112.00
2018-06-12T07:56:56.387Z,17696.00
2018-06-12T07:57:56.328Z,18496.00
2018-06-12T07:58:56.276Z,18848.00
2018-06-12T07:59:56.210Z,18368.00
2018-06-12T08:00:56.185Z,17760.00
2018-06-12T08:01:56.097Z,17248.00
2018-06-12T08:02:56.043Z,16940.00
2018-06-12T08:03:55.982Z,16696.00
2018-06-12T08:04:55.927Z,16304.00
2018-06-12T08:05:55.868Z,16280.00
2018-06-12T08:06:55.862Z,17568.00
2018-06-12T08:07:55.754Z,19424.00
2018-06-12T08:08:55.699Z,20448.00
2018-06-12T08:09:55.641Z,21152.00
2018-06-12T08:10:55.582Z,18432.00
2018-06-12T08:11:55.535Z,16140.00
2018-06-12T08:12:55.562Z,14132.00
2018-06-12T08:13:55.410Z,13476.00
2018-06-12T08:14:55.373Z,12460.00
2018-06-12T08:15:55.304Z,11856.00
2018-06-12T08:16:55.238Z,12104.00
2018-06-12T08:17:55.183Z,13036.00
2018-06-12T08:18:55.126Z,12908.00
2018-06-12T08:19:55.068Z,11752.00
2018-06-12T08:20:55.012Z,10916.00
2018-06-12T08:21:54.979Z,10872.00
2018-06-12T08:22:54.899Z,11160.00
2018-06-12T08:23:54.886Z,11132.00
2018-06-12T08:24:54.782Z,10708.00
2018-06-12T08:25:54.726Z,10112.00
2018-06-12T08:26:54.667Z,9504.00
2018-06-12T08:27:54.612Z,9368.00
2018-06-12T08:28:54.553Z,10172.00
2018-06-12T08:29:54.575Z,11932.00
2018-06-12T08:30:54.438Z,13960.00
2018-06-12T08:31:54.384Z,15888.00
2018-06-12T08:32:54.326Z,16868.00
2018-06-12T08:33:54.268Z,18784.00
2018-06-12T08:34:54.211Z,20768.00
2018-06-12T08:35:54.160Z,20320.00
2018-06-12T08:36:54.090Z,19360.00
2018-06-12T08:37:54.034Z,16548.00
2018-06-12T08:38:53.976Z,14760.00
2018-06-12T08:39:53.928Z,14808.00
2018-06-12T08:40:53.898Z,15296.00
2018-06-12T08:41:53.807Z,16052.00
2018-06-12T08:42:53.756Z,16816.00
2018-06-12T08:43:53.692Z,18432.00
2018-06-12T08:44:53.630Z,20576.00
2018-06-12T08:45:53.576Z,21664.00
2018-06-12T08:46:53.522Z,22912.00
2018-06-12T08:47:53.466Z,23584.00
2018-06-12T08:48:53.403Z,24320.00
2018-06-12T08:49:53.345Z,24736.00
2018-06-12T08:50:53.288Z,23104.00
2018-06-12T08:51:53.230Z,20608.00
2018-06-12T08:52:53.175Z,18400.00
2018-06-12T08:53:53.117Z,18784.00
2018-06-12T08:54:53.072Z,19296.00
2018-06-12T08:55:53.006Z,21376.00
2018-06-12T08:56:52.947Z,23328.00
2018-06-12T08:57:52.886Z,23648.00
2018-06-12T08:58:52.831Z,23552.00
2018-06-12T08:59:52.774Z,23552.00
2018-06-12T09:00:52.720Z,24032.00
2018-06-12T09:01:52.661Z,23680.00
2018-06-12T09:02:52.612Z,23680.00
2018-06-12T09:03:52.549Z,24480.00
2018-06-12T09:04:52.496Z,23968.00
2018-06-12T09:05:52.436Z,24512.00
2018-06-12T09:06:52.379Z,25056.00
2018-06-12T09:07:52.323Z,24704.00
2018-06-12T09:08:52.271Z,24032.00
2018-06-12T09:09:52.204Z,23968.00
2018-06-12T09:10:52.157Z,23456.00
2018-06-12T09:11:52.103Z,23136.00
2018-06-12T09:12:52.037Z,23040.00
2018-06-12T09:13:51.984Z,23552.00
2018-06-12T09:14:51.927Z,23072.00
2018-06-12T09:15:51.869Z,22080.00
2018-06-12T09:16:51.818Z,22816.00
2018-06-12T09:17:51.776Z,24224.00
2018-06-12T09:18:51.705Z,24896.00
2018-06-12T09:19:51.645Z,24768.00
2018-06-12T09:20:51.585Z,24768.00
2018-06-12T09:21:51.537Z,24704.00
2018-06-12T09:22:51.489Z,23808.00
2018-06-12T09:23:51.420Z,22368.00
2018-06-12T09:24:51.366Z,21152.00
2018-06-12T09:25:51.310Z,21312.00
2018-06-12T09:26:51.253Z,22432.00
2018-06-12T09:27:51.197Z,23840.00
2018-06-12T09:28:51.136Z,24576.00
2018-06-12T09:29:51.081Z,25184.00
2018-06-12T09:30:51.024Z,26112.00
2018-06-12T09:31:50.970Z,26208.00
2018-06-12T09:32:50.913Z,26016.00
2018-06-12T09:33:50.868Z,26080.00
2018-06-12T09:34:50.835Z,26208.00
2018-06-12T09:35:50.751Z,25952.00
2018-06-12T09:36:50.689Z,23584.00
2018-06-12T09:37:50.653Z,21984.00
2018-06-12T09:38:50.578Z,22016.00
2018-06-12T09:39:50.522Z,22368.00
2018-06-12T09:40:50.469Z,20224.00
2018-06-12T09:41:50.407Z,18080.00
2018-06-12T09:42:50.350Z,17152.00
2018-06-12T09:43:50.298Z,17536.00
2018-06-12T09:44:50.246Z,19840.00
2018-06-12T09:45:50.186Z,24064.00
2018-06-12T09:46:50.131Z,25856.00
2018-06-12T09:47:50.076Z,27008.00
2018-06-12T09:48:50.024Z,27552.00
2018-06-12T09:49:49.959Z,26752.00
2018-06-12T09:50:49.912Z,27168.00
2018-06-12T09:51:49.888Z,26144.00
2018-06-12T09:52:49.796Z,24768.00
2018-06-12T09:53:49.737Z,23616.00
2018-06-12T09:54:49.683Z,22976.00
2018-06-12T09:55:49.629Z,22880.00
2018-06-12T09:56:49.573Z,23840.00
2018-06-12T09:57:49.590Z,25056.00
2018-06-12T09:58:49.465Z,26400.00
2018-06-12T09:59:49.409Z,28224.00
2018-06-12T10:00:49.359Z,28352.00
2018-06-12T10:01:49.302Z,27936.00
2018-06-12T10:02:49.251Z,27072.00
2018-06-12T10:03:49.186Z,26624.00
2018-06-12T10:04:49.132Z,26112.00
2018-06-12T10:05:49.076Z,26912.00
2018-06-12T10:06:49.018Z,29152.00
2018-06-12T10:07:49.014Z,29184.00
2018-06-12T10:08:48.915Z,28064.00
2018-06-12T10:09:48.856Z,28352.00
2018-06-12T10:10:48.800Z,28096.00
2018-06-12T10:11:48.743Z,26848.00
2018-06-12T10:12:48.685Z,26528.00
2018-06-12T10:13:48.631Z,26848.00
2018-06-12T10:14:48.573Z,27840.00
2018-06-12T10:15:48.529Z,27552.00
2018-06-12T10:16:48.465Z,26944.00
2018-06-12T10:17:48.413Z,26176.00
2018-06-12T10:18:48.421Z,25568.00
2018-06-12T10:19:48.306Z,25344.00
2018-06-12T10:20:48.246Z,25088.00
2018-06-12T10:21:48.190Z,25248.00
2018-06-12T10:22:48.139Z,26208.00
2018-06-12T10:23:48.083Z,26304.00
2018-06-12T10:24:48.028Z,26144.00
2018-06-12T10:25:47.972Z,24576.00
2018-06-12T10:26:47.916Z,23328.00
2018-06-12T10:27:47.862Z,21152.00
2018-06-12T10:28:47.810Z,21120.00
2018-06-12T10:29:47.759Z,23136.00
2018-06-12T10:30:47.697Z,27232.00
2018-06-12T10:31:47.646Z,30272.00
2018-06-12T10:32:47.587Z,30400.00
2018-06-12T10:33:47.531Z,26624.00
2018-06-12T10:34:47.477Z,25216.00
2018-06-12T10:35:47.418Z,22304.00
2018-06-12T10:36:47.372Z,19584.00
2018-06-12T10:37:47.313Z,18944.00
2018-06-12T10:38:47.256Z,21376.00
2018-06-12T10:39:47.200Z,24416.00
2018-06-12T10:40:47.146Z,29184.00
2018-06-12T10:41:47.091Z,29728.00
2018-06-12T10:42:47.042Z,24768.00
2018-06-12T10:43:47.022Z,22272.00
2018-06-12T10:44:46.921Z,21248.00
2018-06-12T10:45:46.867Z,21344.00
2018-06-12T10:46:46.810Z,21920.00
2018-06-12T10:47:46.763Z,22592.00
2018-06-12T10:48:46.698Z,26848.00
2018-06-12T10:49:46.651Z,27232.00
2018-06-12T10:50:46.591Z,27680.00
2018-06-12T10:51:46.536Z,23744.00
2018-06-12T10:52:46.478Z,22368.00
2018-06-12T10:53:46.426Z,22304.00
2018-06-12T10:54:46.376Z,26496.00
2018-06-12T10:55:46.315Z,29984.00
2018-06-12T10:56:46.260Z,32768.00
2018-06-12T10:57:46.201Z,33120.00
2018-06-12T10:58:46.146Z,29696.00
2018-06-12T10:59:46.096Z,31072.00
2018-06-12T11:00:46.049Z,34336.00
2018-06-12T11:01:45.988Z,33120.00
2018-06-12T11:02:45.929Z,32736.00
2018-06-12T11:03:45.879Z,37824.00
2018-06-12T11:04:45.814Z,32896.00
2018-06-12T11:05:45.764Z,29760.00
2018-06-12T11:06:45.712Z,29024.00
2018-06-12T11:07:45.656Z,29088.00
2018-06-12T11:08:45.601Z,29280.00
2018-06-12T11:09:45.547Z,31328.00
2018-06-12T11:10:45.514Z,33056.00
2018-06-12T11:11:45.444Z,37120.00
2018-06-12T11:12:45.385Z,38912.00
2018-06-12T11:13:45.354Z,33440.00
2018-06-12T11:14:45.280Z,35360.00
2018-06-12T11:15:45.225Z,39456.00
2018-06-12T11:16:45.173Z,45280.00
2018-06-12T11:17:45.109Z,22336.00
2018-06-12T11:18:45.088Z,18912.00
2018-06-12T11:19:45.006Z,18368.00
2018-06-12T11:20:45.000Z,21536.00
2018-06-12T11:21:44.903Z,21760.00
2018-06-12T11:22:45.597Z,24064.00
2018-06-12T11:23:44.790Z,27296.00
2018-06-12T11:24:44.732Z,35808.00
2018-06-12T11:25:44.680Z,27072.00
2018-06-12T11:26:44.629Z,27872.00
2018-06-12T11:27:44.573Z,36512.00
2018-06-12T11:28:44.517Z,34432.00
2018-06-12T11:29:44.462Z,33824.00
2018-06-12T11:30:44.412Z,29664.00
2018-06-12T11:31:44.357Z,27488.00
2018-06-12T11:32:44.313Z,27520.00
2018-06-12T11:33:44.250Z,43904.00
2018-06-12T11:34:44.207Z,32288.00
2018-06-12T11:35:44.144Z,38304.00
2018-06-12T11:36:44.086Z,47808.00
2018-06-12T11:37:44.032Z,52224.00
2018-06-12T11:38:43.976Z,74656.00
2018-06-12T11:39:43.923Z,51168.00
2018-06-12T11:40:43.870Z,44320.00
2018-06-12T11:41:43.817Z,40896.00
2018-06-12T11:42:43.762Z,52448.00
2018-06-12T11:43:43.707Z,89440.00
2018-06-12T11:44:43.659Z,71584.00
2018-06-12T11:45:43.605Z,53024.00
2018-06-12T11:46:43.554Z,70304.00
2018-06-12T11:47:43.505Z,36864.00
2018-06-12T11:48:43.444Z,34400.00
2018-06-12T11:49:43.392Z,35296.00
2018-06-12T11:50:43.343Z,37344.00
2018-06-12T11:51:43.289Z,98592.00
2018-06-12T11:52:43.236Z,113664.00
2018-06-12T11:53:43.185Z,65024.00
2018-06-12T11:54:43.132Z,121568.00
2018-06-12T11:55:43.081Z,87776.00
2018-06-12T11:56:43.031Z,93152.00
2018-06-12T11:57:42.973Z,40096.00
2018-06-12T11:58:42.923Z,131424.00
2018-06-12T11:59:42.927Z,48928.00
2018-06-12T12:00:42.822Z,36704.00
2018-06-12T12:01:42.773Z,30080.00
2018-06-12T12:02:42.716Z,32192.00
2018-06-12T12:03:42.670Z,41152.00
2018-06-12T12:04:42.631Z,41632.00
2018-06-12T12:05:42.568Z,88928.00
2018-06-12T12:06:42.524Z,42464.00
2018-06-12T12:07:42.465Z,42816.00
2018-06-12T12:08:42.415Z,42496.00
2018-06-12T12:09:42.355Z,29600.00
2018-06-12T12:10:42.310Z,31488.00
2018-06-12T12:11:42.265Z,31904.00
2018-06-12T12:12:42.208Z,28992.00
2018-06-12T12:13:42.155Z,34240.00
2018-06-12T12:14:42.106Z,68416.00
2018-06-12T12:15:42.055Z,73824.00
2018-06-12T12:16:42.006Z,53696.00
2018-06-12T12:17:41.951Z,56224.00
2018-06-12T12:18:41.904Z,144352.00
2018-06-12T12:19:41.851Z,114752.00
2018-06-12T12:20:41.813Z,122784.00
2018-06-12T12:21:41.748Z,118176.00
2018-06-12T12:22:41.701Z,130368.00
2018-06-12T12:23:41.651Z,29056.00
2018-06-12T12:24:41.600Z,23968.00
2018-06-12T12:25:41.551Z,24128.00
2018-06-12T12:26:41.504Z,28416.00
2018-06-12T12:27:41.455Z,69504.00
2018-06-12T12:28:41.462Z,93824.00
2018-06-12T12:29:41.363Z,45120.00
2018-06-12T12:30:41.315Z,31648.00
2018-06-12T12:31:41.280Z,35616.00
2018-06-12T12:32:41.203Z,26944.00
2018-06-12T12:33:41.152Z,23744.00
2018-06-12T12:34:41.108Z,23360.00
2018-06-12T12:35:41.057Z,22624.00
2018-06-12T12:36:41.005Z,26272.00
2018-06-12T12:37:40.956Z,40480.00
2018-06-12T12:38:40.898Z,141440.00
2018-06-12T12:39:40.852Z,32800.00
2018-06-12T12:40:40.807Z,41504.00
2018-06-12T12:41:40.742Z,32352.00
2018-06-12T12:42:40.695Z,33344.00
2018-06-12T12:43:40.692Z,42624.00
2018-06-12T12:44:40.596Z,120640.00
2018-06-12T12:45:40.546Z,76448.00
2018-06-12T12:46:40.491Z,149440.00
2018-06-12T12:47:40.449Z,150272.00
2018-06-12T12:48:40.392Z,142560.00
2018-06-12T12:49:40.347Z,143200.00
2018-06-12T12:50:40.301Z,138208.00
2018-06-12T12:51:40.245Z,115872.00